Latest Weather Observations for Cape Nelson

IDV60801

Issued at 11:02 pm EST Friday 31 July 2015 (issued every 30 minutes, with the page automatically refreshed every 10 minutes)

About weather observations | Map of weather stations | Latest weather observations for VIC | Other Formats
Station Details ID: 090184 Name: CAPE NELSON LIGHTHOUSE Lat: -38.43 Lon: 141.54 Height: 45.4 m
Data from the previous 72 hours. | See also: Recent months at Cape Nelson
Date/Time
EST
Temp
°C
App
Temp
°C
Dew
Point
Rel
Hum
%
Delta-T
°C
Wind Press
QNH
hPa
Press
MSL
hPa
Rain
since 9 am
mm
Dir
 
Spd
km/h
Gust
km/h
Spd
kts
Gust
kts
31/11:00pm 10.3 4.3 5.5 72 2.2 NNW 26 48 14 26 1008.9 1008.9 0.0
31/10:52pm 10.3 4.0 5.5 72 2.2 NNW 28 48 15 26 1009.1 1009.1 0.0
31/10:30pm 10.1 3.3 5.3 72 2.2 NNW 30 44 16 24 1009.1 1009.1 0.0
31/10:09pm 9.8 3.4 5.0 72 2.2 NNW 28 46 15 25 1009.9 1009.9 0.0
31/10:00pm 9.7 3.2 4.9 72 2.2 NNW 28 39 15 21 1009.9 1009.9 0.0
31/09:30pm 9.5 3.0 4.7 72 2.1 NNW 28 41 15 22 1010.4 1010.4 0.0
31/09:00pm 9.4 3.6 4.4 71 2.2 NNW 24 35 13 19 1011.0 1011.0 0.0
31/08:30pm 9.3 3.5 4.3 71 2.2 N 24 33 13 18 1011.2 1011.2 0.0
31/08:00pm 9.2 3.7 4.2 71 2.2 N 22 33 12 18 1011.5 1011.5 0.0
31/07:30pm 9.2 4.3 4.0 70 2.3 NNW 19 26 10 14 1012.5 1012.5 0.0
31/07:00pm 9.3 4.2 3.9 69 2.4 NNW 20 28 11 15 1013.0 1013.0 0.0
31/06:30pm 9.4 3.5 3.8 68 2.4 NNW 24 33 13 18 1013.1 1013.1 0.0
31/06:00pm 9.5 3.6 3.9 68 2.5 NNW 24 39 13 21 1013.5 1013.5 0.0
31/05:30pm 9.6 3.3 3.6 66 2.6 NW 26 37 14 20 1013.9 1013.9 0.0
31/05:00pm 9.8 3.5 3.5 65 2.7 NW 26 37 14 20 1014.1 1014.1 0.0
31/04:30pm 10.0 3.3 3.5 64 2.8 NW 28 44 15 24 1014.1 1014.1 0.0
31/04:00pm 10.0 3.6 3.3 63 2.9 NNW 26 37 14 20 1014.3 1014.3 0.0
31/03:30pm 10.4 3.6 3.2 61 3.1 NW 28 39 15 21 1014.6 1014.6 0.0
31/03:00pm 11.7 6.3 4.4 61 3.3 NNW 22 32 12 17 1014.5 1014.5 0.0
31/02:30pm 11.7 5.9 4.2 60 3.4 NW 24 35 13 19 1015.0 1015.0 0.0
31/02:00pm 10.9 4.5 3.0 58 3.4 NW 26 39 14 21 1015.8 1015.8 0.0
31/01:30pm 11.3 4.8 2.9 56 3.7 NNW 26 35 14 19 1016.3 1016.3 0.0
31/01:00pm 11.1 4.3 2.9 57 3.6 NW 28 43 15 23 1016.8 1016.8 0.0
31/12:30pm 11.3 4.5 2.9 56 3.7 NW 28 41 15 22 1017.6 1017.7 0.0
31/12:00pm 11.6 5.5 2.9 55 3.8 NW 24 33 13 18 1018.3 1018.4 0.0
31/11:30am 11.8 6.7 4.3 60 3.4 NW 20 32 11 17 1018.9 1019.0 0.0
31/11:00am 11.6 5.9 3.1 56 3.7 NNW 22 32 12 17 1019.1 1019.2 0.0
31/10:30am 10.5 5.4 4.0 64 2.9 NNW 20 32 11 17 1019.4 1019.5 0.0
31/10:00am 9.1 3.9 3.5 68 2.4 NNW 20 28 11 15 1019.4 1019.5 0.0
31/09:30am 8.9 4.7 3.7 70 2.3 NNW 15 20 8 11 1019.5 1019.6 0.0
31/09:00am 8.6 4.0 3.6 71 2.2 NNW 17 22 9 12 1019.5 1019.6 3.4
31/08:30am 8.5 4.2 3.4 70 2.2 N 15 28 8 15 1019.5 1019.6 3.4
31/08:00am 9.9 4.2 2.7 61 3.1 WNW 22 33 12 18 1019.4 1019.5 3.4
31/07:30am 9.5 3.3 2.4 61 3.0 WNW 24 35 13 19 1019.3 1019.4 3.4
31/07:00am 9.7 4.4 2.8 62 2.9 W 20 33 11 18 1019.1 1019.2 3.4
31/06:30am 9.6 4.4 3.4 65 2.7 W 20 30 11 16 1019.0 1019.1 3.4
31/06:00am 9.5 3.2 1.4 57 3.3 W 24 43 13 23 1018.9 1019.0 3.4
31/05:30am 9.4 4.2 3.8 68 2.4 W 20 39 11 21 1019.0 1019.1 3.4
31/05:00am 9.2 3.4 4.6 73 2.0 W 24 35 13 19 1019.3 1019.4 3.4
31/04:30am 9.2 2.7 4.6 73 2.0 W 28 43 15 23 1019.4 1019.5 3.4
31/04:00am 9.8 3.5 1.7 57 3.4 W 24 37 13 20 1019.2 1019.3 3.4
31/03:30am 9.7 5.1 3.7 66 2.6 NW 17 28 9 15 1019.3 1019.4 3.4
31/03:00am 9.5 5.4 4.3 70 2.3 NE 15 32 8 17 1019.2 1019.3 3.4
31/02:30am 10.0 4.0 3.1 62 3.0 WNW 24 37 13 20 1019.4 1019.5 3.4
31/02:00am 9.9 4.3 1.0 54 3.7 WNW 20 32 11 17 1019.3 1019.4 3.4
31/01:30am 10.0 3.9 2.8 61 3.1 W 24 39 13 21 1019.2 1019.3 3.4
31/01:00am 9.8 5.3 2.2 59 3.2 NNW 15 28 8 15 1019.4 1019.5 3.4
31/12:30am 9.8 6.0 3.8 66 2.6 SE 13 24 7 13 1019.2 1019.3 3.4
31/12:00am 9.6 5.2 2.5 61 3.0 NE 15 24 8 13 1019.0 1019.1 3.4
 
Date/Time
EST
Temp
°C
App
Temp
°C
Dew
Point
Rel
Hum
%
Delta-T
°C
Wind Press
QNH
hPa
Press
MSL
hPa
Rain
since 9 am
mm
Dir
 
Spd
km/h
Gust
km/h
Spd
kts
Gust
kts
30/11:30pm 9.5 4.3 2.4 61 3.0 S 19 30 10 16 1019.1 1019.2 3.4
30/11:00pm 10.1 5.7 4.5 68 2.5 ENE 17 30 9 16 1018.7 1018.8 3.4
30/10:30pm 10.0 5.2 2.6 60 3.2 ENE 17 24 9 13 1018.3 1018.4 3.4
30/10:00pm 10.1 5.8 3.2 62 3.0 ENE 15 32 8 17 1018.2 1018.3 3.4
30/09:30pm 10.2 4.6 3.3 62 3.0 SSE 22 43 12 23 1017.6 1017.7 3.4
30/09:00pm 10.3 4.8 4.0 65 2.8 SE 22 41 12 22 1017.2 1017.3 3.4
30/08:30pm 10.0 3.9 4.8 70 2.3 NW 26 39 14 21 1016.9 1016.9 3.4
30/08:00pm 10.5 5.3 3.8 63 3.0 NNE 20 30 11 16 1016.1 1016.1 3.4
30/07:30pm 10.6 5.7 4.9 68 2.6 NNE 20 33 11 18 1015.3 1015.3 3.4
30/07:00pm 10.6 4.5 4.7 67 2.7 NE 26 44 14 24 1014.7 1014.7 3.4
30/06:30pm 10.9 3.9 5.9 71 2.3 NNW 32 61 17 33 1013.8 1013.8 3.4
30/06:25pm 10.8 2.4 5.8 71 2.3 WNW 39 61 21 33 1013.6 1013.6 3.4
30/06:01pm 10.7 2.3 7.4 80 1.6 W 41 59 22 32 1013.4 1013.4 3.4
30/06:00pm 10.7 1.9 7.4 80 1.6 W 43 59 23 32 1013.4 1013.4 3.4
30/05:50pm 10.3 2.2 7.2 81 1.5 W 39 57 21 31 1013.1 1013.1 3.4
30/05:30pm 9.7 1.8 7.8 88 0.9 W 39 57 21 31 1012.8 1012.8 3.2
30/05:26pm 9.3 2.5 7.7 90 0.8 WNW 33 57 18 31 1012.6 1012.6 3.2
30/05:00pm 9.8 3.7 8.4 91 0.7 NNE 30 54 16 29 1011.1 1011.1 2.6
30/04:34pm 10.7 2.2 9.1 90 0.8 WNW 44 83 24 45 1010.4 1010.4 1.4
30/04:30pm 10.7 1.7 8.8 88 0.9 WNW 46 78 25 42 1010.6 1010.6 1.2
30/04:29pm 11.6 3.3 10.0 90 0.8 NW 44 72 24 39 1010.5 1010.5 1.0
30/04:02pm 11.6 3.4 8.3 80 1.6 NW 41 59 22 32 1009.0 1009.0 0.0
30/04:00pm 11.5 2.9 8.2 80 1.6 NW 43 59 23 32 1009.1 1009.1 0.0
30/03:30pm 11.6 2.6 7.3 75 2.1 NW 44 65 24 35 1009.5 1009.5 0.0
30/03:00pm 12.3 3.8 7.0 70 2.6 NW 41 65 22 35 1009.3 1009.3 0.0
30/02:40pm 11.9 3.7 6.4 69 2.6 NNW 39 59 21 32 1009.3 1009.3 0.0
30/02:30pm 11.8 3.5 6.3 69 2.6 NNW 39 56 21 30 1009.4 1009.4 0.0
30/02:00pm 11.1 3.2 6.3 72 2.3 NNW 37 61 20 33 1009.7 1009.7 0.0
30/01:30pm 10.6 2.7 6.2 74 2.1 NNW 37 56 20 30 1010.2 1010.2 0.0
30/01:04pm 10.5 3.4 6.5 76 1.9 NNW 33 56 18 30 1010.5 1010.5 0.0
30/01:00pm 10.5 3.4 6.5 76 1.9 NNW 33 46 18 25 1010.6 1010.6 0.0
30/12:38pm 11.0 3.3 5.5 69 2.5 NNW 35 54 19 29 1011.3 1011.3 0.0
30/12:30pm 11.5 2.9 4.7 63 3.1 NNW 39 54 21 29 1011.5 1011.5 0.0
30/12:00pm 11.8 3.8 3.8 58 3.6 NNW 35 57 19 31 1012.1 1012.1 0.0
30/11:33am 11.5 4.1 3.8 59 3.4 NNW 32 50 17 27 1012.2 1012.2 0.0
30/11:30am 11.4 4.4 4.2 61 3.2 NNW 30 44 16 24 1012.4 1012.4 0.0
30/11:07am 11.4 4.0 4.2 61 3.2 N 32 50 17 27 1012.4 1012.4 0.0
30/11:00am 11.3 3.4 4.1 61 3.2 NNW 35 50 19 27 1012.5 1012.5 0.0
30/10:50am 10.7 3.7 4.0 63 3.0 N 30 50 16 27 1012.6 1012.6 0.0
30/10:30am 10.2 2.8 3.9 65 2.8 N 32 44 17 24 1013.0 1013.0 0.0
30/10:00am 9.6 2.0 3.8 67 2.5 NNW 33 56 18 30 1013.7 1013.7 0.0
30/09:30am 9.5 1.9 3.7 67 2.5 NNW 33 52 18 28 1013.9 1013.9 0.0
30/09:22am 9.3 1.8 3.5 67 2.5 NNW 32 50 17 27 1014.4 1014.4 0.0
30/09:00am 9.3 2.2 3.5 67 2.5 NNW 30 43 16 23 1014.9 1014.9 0.2
30/08:30am 8.8 1.4 3.8 71 2.2 NNW 32 46 17 25 1015.1 1015.1 0.2
30/08:00am 8.4 1.8 4.0 74 1.9 NNW 28 43 15 23 1015.4 1015.4 0.0
30/07:30am 8.6 1.2 4.0 73 2.0 NNW 32 43 17 23 1015.6 1015.6 0.0
30/07:00am 9.4 1.8 2.7 63 2.9 NNW 32 46 17 25 1015.1 1015.1 0.0
30/06:43am 9.3 1.5 2.6 63 2.8 NNW 33 52 18 28 1015.1 1015.1 0.0
30/06:30am 9.3 2.1 2.9 64 2.7 NNW 30 46 16 25 1015.3 1015.3 0.0
30/06:00am 9.2 2.0 2.8 64 2.7 N 30 56 16 30 1015.6 1015.6 0.0
30/05:34am 9.2 1.6 3.0 65 2.7 NNW 32 54 17 29 1016.1 1016.1 0.0
30/05:30am 9.2 1.6 3.0 65 2.7 NNW 32 46 17 25 1016.2 1016.2 0.0
30/05:00am 9.2 1.1 3.0 65 2.7 NNW 35 54 19 29 1016.6 1016.6 0.0
30/04:30am 9.0 1.3 3.2 67 2.5 NNW 33 52 18 28 1017.0 1017.1 0.0
30/04:08am 8.8 1.3 3.2 68 2.4 NNW 32 50 17 27 1017.3 1017.4 0.0
30/04:00am 8.7 1.2 3.3 69 2.3 NNW 32 44 17 24 1017.6 1017.7 0.0
30/03:41am 8.6 1.1 3.2 69 2.3 N 32 50 17 27 1017.8 1017.9 0.0
30/03:30am 8.5 1.8 3.4 70 2.2 N 28 44 15 24 1018.1 1018.2 0.0
30/03:00am 7.9 1.5 3.2 72 2.0 N 26 37 14 20 1018.9 1019.0 0.0
30/02:30am 7.8 1.4 3.3 73 1.9 NNW 26 37 14 20 1019.4 1019.5 0.0
30/02:00am 7.7 1.7 3.4 74 1.8 N 24 35 13 19 1019.8 1019.9 0.0
30/01:30am 7.8 1.8 3.5 74 1.8 N 24 35 13 19 1020.3 1020.4 0.0
30/01:00am 7.9 1.9 3.6 74 1.8 N 24 37 13 20 1020.8 1020.9 0.0
30/12:30am 8.2 1.5 3.7 73 1.9 N 28 41 15 22 1021.1 1021.2 0.0
30/12:00am 8.3 2.8 3.8 73 1.9 N 22 30 12 16 1021.9 1022.0 0.0
 
Date/Time
EST
Temp
°C
App
Temp
°C
Dew
Point
Rel
Hum
%
Delta-T
°C
Wind Press
QNH
hPa
Press
MSL
hPa
Rain
since 9 am
mm
Dir
 
Spd
km/h
Gust
km/h
Spd
kts
Gust
kts
29/11:30pm 8.8 3.3 4.0 72 2.1 NNW 22 35 12 19 1022.6 1022.7 0.0
29/11:00pm 9.1 2.8 3.9 70 2.3 N 26 39 14 21 1022.7 1022.8 0.0
29/10:30pm 8.8 3.7 4.0 72 2.1 N 20 30 11 16 1022.9 1023.0 0.0
29/10:00pm 8.6 3.4 3.8 72 2.1 N 20 30 11 16 1023.4 1023.5 0.0
29/09:30pm 8.9 3.8 3.9 71 2.2 N 20 30 11 16 1023.7 1023.8 0.0
29/09:00pm 9.1 3.6 4.1 71 2.2 N 22 32 12 17 1023.8 1023.9 0.0
29/08:30pm 9.1 4.0 4.1 71 2.2 N 20 33 11 18 1023.8 1023.9 0.0
29/08:00pm 9.3 3.9 4.3 71 2.2 N 22 32 12 17 1023.9 1024.0 0.0
29/07:30pm 9.5 4.1 4.5 71 2.2 N 22 35 12 19 1024.1 1024.2 0.0
29/07:00pm 9.6 4.6 4.6 71 2.2 N 20 30 11 16 1024.4 1024.5 0.0
29/06:30pm 9.7 4.9 4.7 71 2.2 N 19 30 10 16 1024.3 1024.4 0.0
29/06:00pm 10.0 5.2 4.8 70 2.3 N 19 30 10 16 1024.3 1024.4 0.0
29/05:30pm 10.2 5.8 4.8 69 2.4 NNW 17 24 9 13 1024.6 1024.7 0.0
29/05:00pm 10.6 6.2 4.9 68 2.6 NNW 17 24 9 13 1024.8 1024.9 0.0
29/04:30pm 11.2 5.5 4.9 65 2.9 NNW 24 37 13 20 1025.0 1025.1 0.0
29/04:00pm 11.8 6.6 5.4 65 2.9 NNW 22 37 12 20 1025.3 1025.4 0.0
29/03:30pm 12.1 6.5 5.3 63 3.1 NNW 24 43 13 23 1025.4 1025.5 0.0
29/03:00pm 12.0 6.9 5.9 66 2.8 NNW 22 37 12 20 1025.6 1025.7 0.0
29/02:30pm 11.7 6.2 6.0 68 2.7 NNW 24 39 13 21 1025.9 1026.0 0.0
29/02:00pm 11.7 7.0 6.0 68 2.7 NNW 20 35 11 19 1026.4 1026.5 0.0
29/01:30pm 11.4 6.6 5.7 68 2.6 NNW 20 33 11 18 1027.0 1027.0 0.0
29/01:00pm 11.7 7.0 6.2 69 2.6 NNW 20 32 11 17 1028.0 1028.0 0.0
29/12:30pm 11.4 7.0 6.5 72 2.3 N 19 30 10 16 1028.7 1028.7 0.0
29/12:00pm 11.4 7.5 7.1 75 2.0 N 17 30 9 16 1029.5 1029.5 0.0
29/11:30am 10.8 6.5 6.9 77 1.9 NNW 19 30 10 16 1029.9 1029.9 0.0
29/11:00am 10.8 5.7 7.5 80 1.6 NNW 24 35 13 19 1030.1 1030.1 0.0
29/10:30am 10.5 5.0 7.7 83 1.3 NNW 26 41 14 22 1030.4 1030.4 0.0
29/10:22am 10.5 4.6 7.6 82 1.4 NNW 28 46 15 25 1030.5 1030.5 0.0
29/10:00am 10.6 4.0 7.7 82 1.4 NNW 32 46 17 25 1030.5 1030.5 0.0
29/09:30am 9.1 4.2 6.9 86 1.0 NNW 22 33 12 18 1030.5 1030.5 0.0
29/09:00am 8.6 3.6 6.6 87 0.9 N 22 32 12 17 1030.4 1030.4 1.8
29/08:30am 8.6 4.0 6.7 88 0.9 N 20 32 11 17 1030.7 1030.7 1.8
29/08:00am 8.2 3.8 6.7 90 0.7 N 19 28 10 15 1030.9 1030.9 1.8
29/07:30am 8.2 3.9 6.8 91 0.6 N 19 28 10 15 1030.8 1030.8 1.8
29/07:00am 8.5 4.1 7.3 92 0.6 NNW 20 26 11 14 1031.0 1031.0 1.8
29/06:30am 8.2 4.2 6.8 91 0.6 NNW 17 24 9 13 1030.8 1030.8 1.8
29/06:00am 7.9 3.9 6.5 91 0.6 NNW 17 24 9 13 1030.7 1030.7 1.8
29/05:30am 7.8 3.2 6.4 91 0.6 N 20 28 11 15 1030.4 1030.4 1.8
29/05:00am 7.8 3.4 6.4 91 0.6 N 19 26 10 14 1030.3 1030.3 1.8
29/04:30am 7.9 3.8 6.4 90 0.7 N 17 22 9 12 1030.6 1030.6 1.8
29/04:00am 8.1 4.1 6.7 91 0.6 NNW 17 24 9 13 1031.1 1031.1 1.8
29/03:30am 8.1 4.1 6.7 91 0.6 NNW 17 26 9 14 1031.2 1031.2 1.8
29/03:00am 8.2 4.2 6.8 91 0.6 NNW 17 28 9 15 1031.2 1031.2 1.8
29/02:30am 8.5 4.1 7.3 92 0.6 NNW 20 28 11 15 1031.5 1031.5 1.8
29/02:00am 8.1 3.8 6.9 92 0.6 NNW 19 26 10 14 1031.4 1031.4 1.8
29/01:30am 7.9 3.9 6.5 91 0.6 NNW 17 22 9 12 1031.7 1031.7 1.8
29/01:00am 7.9 3.9 6.5 91 0.6 NNW 17 22 9 12 1031.9 1031.9 1.8
29/12:30am 8.4 4.1 7.0 91 0.7 NNW 19 24 10 13 1032.2 1032.2 1.8
29/12:00am 8.5 5.0 7.0 90 0.7 NNW 15 22 8 12 1032.6 1032.6 1.8
 
Date/Time
EST
Temp
°C
App
Temp
°C
Dew
Point
Rel
Hum
%
Delta-T
°C
Wind Press
QNH
hPa
Press
MSL
hPa
Rain
since 9 am
mm
Dir
 
Spd
km/h
Gust
km/h
Spd
kts
Gust
kts
28/11:30pm 8.9 4.7 7.4 90 0.7 NNW 19 26 10 14 1032.6 1032.6 1.8

Other Formats:

Comma delimited format used in spreadsheet applications
http://www.bom.gov.au/fwo/IDV60801/IDV60801.94826.axf

JavaScript Object Notation format (JSON) in row-major order
http://www.bom.gov.au/fwo/IDV60801/IDV60801.94826.json